sensor_id;sensor_type;location;lat;lon;timestamp;temperature;humidity
2611;DHT22;5612;51.134;17.058;2023-07-16T00:01:02;23.90;15.20
2611;DHT22;5612;51.134;17.058;2023-07-16T00:03:31;23.90;2.20
2611;DHT22;5612;51.134;17.058;2023-07-16T00:06:00;23.90;3.20
2611;DHT22;5612;51.134;17.058;2023-07-16T00:08:29;23.70;33.90
2611;DHT22;5612;51.134;17.058;2023-07-16T00:10:59;23.70;33.40
2611;DHT22;5612;51.134;17.058;2023-07-16T00:13:28;23.70;65.40
2611;DHT22;5612;51.134;17.058;2023-07-16T00:15:56;23.80;75.00
2611;DHT22;5612;51.134;17.058;2023-07-16T00:18:25;23.80;69.00
2611;DHT22;5612;51.134;17.058;2023-07-16T00:20:54;23.80;72.30
2611;DHT22;5612;51.134;17.058;2023-07-16T00:23:23;23.70;69.90
2611;DHT22;5612;51.134;17.058;2023-07-16T00:25:52;23.70;59.70
2611;DHT22;5612;51.134;17.058;2023-07-16T00:28:22;23.70;92.90
2611;DHT22;5612;51.134;17.058;2023-07-16T00:30:51;23.60;99.90
2611;DHT22;5612;51.134;17.058;2023-07-16T00:33:20;23.60;99.90
2611;DHT22;5612;51.134;17.058;2023-07-16T00:35:49;23.60;99.90
2611;DHT22;5612;51.134;17.058;2023-07-16T00:38:19;23.60;99.90
2611;DHT22;5612;51.134;17.058;2023-07-16T00:40:48;23.60;97.10
2611;DHT22;5612;51.134;17.058;2023-07-16T00:43:16;23.60;99.90
2611;DHT22;5612;51.134;17.058;2023-07-16T00:45:47;23.60;99.90
2611;DHT22;5612;51.134;17.058;2023-07-16T00:48:16;23.60;99.90
2611;DHT22;5612;51.134;17.058;2023-07-16T00:50:45;23.60;99.90
2611;DHT22;5612;51.134;17.058;2023-07-16T00:53:13;23.60;99.90
2611;DHT22;5612;51.134;17.058;2023-07-16T00:55:42;23.50;99.90
2611;DHT22;5612;51.134;17.058;2023-07-16T00:58:11;23.40;99.90
2611;DHT22;5612;51.134;17.058;2023-07-16T01:00:41;23.40;99.90
2611;DHT22;5612;51.134;17.058;2023-07-16T01:03:13;23.40;99.90
2611;DHT22;5612;51.134;17.058;2023-07-16T01:05:47;23.30;99.90
2611;DHT22;5612;51.134;17.058;2023-07-16T01:08:21;23.30;99.90
2611;DHT22;5612;51.134;17.058;2023-07-16T01:10:54;23.30;99.90
2611;DHT22;5612;51.134;17.058;2023-07-16T01:13:23;23.30;99.90
2611;DHT22;5612;51.134;17.058;2023-07-16T01:15:53;23.20;99.90
2611;DHT22;5612;51.134;17.058;2023-07-16T01:18:23;23.20;99.90
2611;DHT22;5612;51.134;17.058;2023-07-16T01:20:52;23.10;99.90
2611;DHT22;5612;51.134;17.058;2023-07-16T01:23:45;23.10;99.90
2611;DHT22;5612;51.134;17.058;2023-07-16T01:26:44;23.00;99.90
2611;DHT22;5612;51.134;17.058;2023-07-16T01:29:28;23.00;99.90
2611;DHT22;5612;51.134;17.058;2023-07-16T01:31:59;23.10;99.90
2611;DHT22;5612;51.134;17.058;2023-07-16T01:34:30;23.10;99.90
2611;DHT22;5612;51.134;17.058;2023-07-16T01:37:01;23.10;99.90
2611;DHT22;5612;51.134;17.058;2023-07-16T01:39:31;23.10;99.90
2611;DHT22;5612;51.134;17.058;2023-07-16T01:42:01;23.00;99.90
2611;DHT22;5612;51.134;17.058;2023-07-16T01:44:31;23.00;99.90
2611;DHT22;5612;51.134;17.058;2023-07-16T01:47:06;22.90;99.90
2611;DHT22;5612;51.134;17.058;2023-07-16T01:49:35;22.90;99.90
2611;DHT22;5612;51.134;17.058;2023-07-16T01:52:06;22.90;99.90
2611;DHT22;5612;51.134;17.058;2023-07-16T01:54:35;22.90;99.90
2611;DHT22;5612;51.134;17.058;2023-07-16T01:57:04;22.90;99.90
2611;DHT22;5612;51.134;17.058;2023-07-16T01:59:35;22.80;99.90
2611;DHT22;5612;51.134;17.058;2023-07-16T02:02:04;22.90;99.90
2611;DHT22;5612;51.134;17.058;2023-07-16T02:04:33;22.70;1.00
2611;DHT22;5612;51.134;17.058;2023-07-16T02:07:02;22.70;1.00
2611;DHT22;5612;51.134;17.058;2023-07-16T02:09:33;22.70;1.00
2611;DHT22;5612;51.134;17.058;2023-07-16T02:12:02;22.60;1.00
2611;DHT22;5612;51.134;17.058;2023-07-16T02:14:30;22.60;1.00
2611;DHT22;5612;51.134;17.058;2023-07-16T02:17:01;22.50;1.00
2611;DHT22;5612;51.134;17.058;2023-07-16T02:19:29;22.50;1.00
2611;DHT22;5612;51.134;17.058;2023-07-16T02:21:58;22.60;1.00
2611;DHT22;5612;51.134;17.058;2023-07-16T02:24:27;22.50;1.00
2611;DHT22;5612;51.134;17.058;2023-07-16T02:26:56;22.50;1.00
2611;DHT22;5612;51.134;17.058;2023-07-16T02:29:24;22.60;1.00
2611;DHT22;5612;51.134;17.058;2023-07-16T02:31:54;22.50;1.00
2611;DHT22;5612;51.134;17.058;2023-07-16T02:34:24;22.50;1.00
2611;DHT22;5612;51.134;17.058;2023-07-16T02:36:53;22.30;99.90
2611;DHT22;5612;51.134;17.058;2023-07-16T02:39:22;22.40;50.40
2611;DHT22;5612;51.134;17.058;2023-07-16T02:41:51;22.50;1.00
2611;DHT22;5612;51.134;17.058;2023-07-16T02:44:19;22.60;6.60
2611;DHT22;5612;51.134;17.058;2023-07-16T02:46:48;22.40;99.90
2611;DHT22;5612;51.134;17.058;2023-07-16T02:49:17;22.40;82.80
2611;DHT22;5612;51.134;17.058;2023-07-16T02:51:47;22.40;99.90
2611;DHT22;5612;51.134;17.058;2023-07-16T02:54:16;22.30;99.90
2611;DHT22;5612;51.134;17.058;2023-07-16T02:56:45;22.40;21.20
2611;DHT22;5612;51.134;17.058;2023-07-16T02:59:13;22.30;99.90
2611;DHT22;5612;51.134;17.058;2023-07-16T03:01:42;22.20;99.90
2611;DHT22;5612;51.134;17.058;2023-07-16T03:04:14;22.10;99.90
2611;DHT22;5612;51.134;17.058;2023-07-16T03:06:47;22.10;99.90
2611;DHT22;5612;51.134;17.058;2023-07-16T03:09:16;22.10;1.00
2611;DHT22;5612;51.134;17.058;2023-07-16T03:11:45;22.10;1.00
2611;DHT22;5612;51.134;17.058;2023-07-16T03:14:14;22.20;1.00
2611;DHT22;5612;51.134;17.058;2023-07-16T03:16:42;22.20;99.90
2611;DHT22;5612;51.134;17.058;2023-07-16T03:19:11;22.30;99.90
2611;DHT22;5612;51.134;17.058;2023-07-16T03:21:40;22.20;99.90
2611;DHT22;5612;51.134;17.058;2023-07-16T03:24:10;22.20;99.90
2611;DHT22;5612;51.134;17.058;2023-07-16T03:26:39;22.20;99.90
2611;DHT22;5612;51.134;17.058;2023-07-16T03:29:08;22.30;99.90
2611;DHT22;5612;51.134;17.058;2023-07-16T03:31:37;22.40;99.90
2611;DHT22;5612;51.134;17.058;2023-07-16T03:34:06;22.40;99.90
2611;DHT22;5612;51.134;17.058;2023-07-16T03:36:34;22.40;99.90
2611;DHT22;5612;51.134;17.058;2023-07-16T03:39:03;22.40;99.90
2611;DHT22;5612;51.134;17.058;2023-07-16T03:41:34;22.60;99.90
2611;DHT22;5612;51.134;17.058;2023-07-16T03:44:03;22.70;99.90
2611;DHT22;5612;51.134;17.058;2023-07-16T03:46:32;22.90;77.90
2611;DHT22;5612;51.134;17.058;2023-07-16T03:49:01;23.10;1.00
2611;DHT22;5612;51.134;17.058;2023-07-16T03:51:29;23.30;1.00
2611;DHT22;5612;51.134;17.058;2023-07-16T03:53:58;23.50;1.00
2611;DHT22;5612;51.134;17.058;2023-07-16T03:56:27;23.70;1.00
2611;DHT22;5612;51.134;17.058;2023-07-16T03:58:57;23.90;1.00
2611;DHT22;5612;51.134;17.058;2023-07-16T04:01:26;23.90;99.90
2611;DHT22;5612;51.134;17.058;2023-07-16T04:03:55;23.80;99.90
2611;DHT22;5612;51.134;17.058;2023-07-16T04:06:24;23.80;99.90
2611;DHT22;5612;51.134;17.058;2023-07-16T04:08:52;23.90;1.00
2611;DHT22;5612;51.134;17.058;2023-07-16T04:11:21;24.00;1.00
2611;DHT22;5612;51.134;17.058;2023-07-16T04:13:50;24.10;99.90
2611;DHT22;5612;51.134;17.058;2023-07-16T04:16:20;24.10;99.90
2611;DHT22;5612;51.134;17.058;2023-07-16T04:18:49;24.20;99.90
2611;DHT22;5612;51.134;17.058;2023-07-16T04:21:17;24.30;99.90
2611;DHT22;5612;51.134;17.058;2023-07-16T04:23:46;24.30;99.90
2611;DHT22;5612;51.134;17.058;2023-07-16T04:26:15;24.30;99.90
2611;DHT22;5612;51.134;17.058;2023-07-16T04:28:44;24.40;99.90
2611;DHT22;5612;51.134;17.058;2023-07-16T04:31:13;24.40;52.20
2611;DHT22;5612;51.134;17.058;2023-07-16T04:33:44;24.40;49.20
2611;DHT22;5612;51.134;17.058;2023-07-16T04:36:12;24.40;60.20
2611;DHT22;5612;51.134;17.058;2023-07-16T04:38:42;24.40;45.00
2611;DHT22;5612;51.134;17.058;2023-07-16T04:41:10;24.40;69.90
2611;DHT22;5612;51.134;17.058;2023-07-16T04:43:40;24.50;56.00
2611;DHT22;5612;51.134;17.058;2023-07-16T04:46:08;24.60;83.20
2611;DHT22;5612;51.134;17.058;2023-07-16T04:48:39;24.60;39.30
2611;DHT22;5612;51.134;17.058;2023-07-16T04:51:09;24.60;33.40
2611;DHT22;5612;51.134;17.058;2023-07-16T04:53:38;24.60;36.00
2611;DHT22;5612;51.134;17.058;2023-07-16T04:56:11;24.60;35.20
2611;DHT22;5612;51.134;17.058;2023-07-16T04:58:42;24.70;45.70
2611;DHT22;5612;51.134;17.058;2023-07-16T05:01:11;24.80;39.60
2611;DHT22;5612;51.134;17.058;2023-07-16T05:03:40;24.70;29.40
2611;DHT22;5612;51.134;17.058;2023-07-16T05:06:10;24.70;34.60
2611;DHT22;5612;51.134;17.058;2023-07-16T05:08:39;24.70;26.80
2611;DHT22;5612;51.134;17.058;2023-07-16T05:11:08;24.90;6.30
2611;DHT22;5612;51.134;17.058;2023-07-16T05:13:36;24.90;5.10
2611;DHT22;5612;51.134;17.058;2023-07-16T05:16:05;24.90;1.00
2611;DHT22;5612;51.134;17.058;2023-07-16T05:18:35;25.00;1.00
2611;DHT22;5612;51.134;17.058;2023-07-16T05:21:03;25.20;1.00
2611;DHT22;5612;51.134;17.058;2023-07-16T05:23:34;25.30;10.50
2611;DHT22;5612;51.134;17.058;2023-07-16T05:26:02;25.40;7.00
2611;DHT22;5612;51.134;17.058;2023-07-16T05:28:31;25.40;1.00
2611;DHT22;5612;51.134;17.058;2023-07-16T05:31:00;25.40;1.00
2611;DHT22;5612;51.134;17.058;2023-07-16T05:33:29;25.40;1.00
2611;DHT22;5612;51.134;17.058;2023-07-16T05:35:58;25.50;1.00
2611;DHT22;5612;51.134;17.058;2023-07-16T05:38:27;25.50;1.00
2611;DHT22;5612;51.134;17.058;2023-07-16T05:41:02;25.50;1.00
2611;DHT22;5612;51.134;17.058;2023-07-16T05:43:31;25.70;1.00
2611;DHT22;5612;51.134;17.058;2023-07-16T05:46:00;26.00;1.00
2611;DHT22;5612;51.134;17.058;2023-07-16T05:48:29;26.20;1.00
2611;DHT22;5612;51.134;17.058;2023-07-16T05:50:58;26.30;1.00
2611;DHT22;5612;51.134;17.058;2023-07-16T05:53:26;26.50;1.00
2611;DHT22;5612;51.134;17.058;2023-07-16T05:55:55;26.50;1.00
2611;DHT22;5612;51.134;17.058;2023-07-16T05:58:25;26.60;1.00
2611;DHT22;5612;51.134;17.058;2023-07-16T06:00:54;26.80;1.00
2611;DHT22;5612;51.134;17.058;2023-07-16T06:03:23;26.90;1.00
2611;DHT22;5612;51.134;17.058;2023-07-16T06:05:52;27.10;1.00
2611;DHT22;5612;51.134;17.058;2023-07-16T06:08:21;27.30;1.00
2611;DHT22;5612;51.134;17.058;2023-07-16T06:10:51;27.40;1.00
2611;DHT22;5612;51.134;17.058;2023-07-16T06:13:20;27.40;1.00
2611;DHT22;5612;51.134;17.058;2023-07-16T06:15:50;27.40;1.00
2611;DHT22;5612;51.134;17.058;2023-07-16T06:18:19;27.40;1.00
2611;DHT22;5612;51.134;17.058;2023-07-16T06:20:48;27.40;1.00
2611;DHT22;5612;51.134;17.058;2023-07-16T06:23:19;27.30;1.00
2611;DHT22;5612;51.134;17.058;2023-07-16T06:25:47;27.20;1.00
2611;DHT22;5612;51.134;17.058;2023-07-16T06:28:17;27.40;1.00
2611;DHT22;5612;51.134;17.058;2023-07-16T06:30:45;27.60;1.00
2611;DHT22;5612;51.134;17.058;2023-07-16T06:33:15;27.50;1.00
2611;DHT22;5612;51.134;17.058;2023-07-16T06:35:45;27.50;1.00
2611;DHT22;5612;51.134;17.058;2023-07-16T06:38:14;27.30;1.00
2611;DHT22;5612;51.134;17.058;2023-07-16T06:40:46;27.20;1.00
2611;DHT22;5612;51.134;17.058;2023-07-16T06:43:16;27.20;1.00
2611;DHT22;5612;51.134;17.058;2023-07-16T06:45:45;27.30;1.00
2611;DHT22;5612;51.134;17.058;2023-07-16T06:48:15;27.60;1.00
2611;DHT22;5612;51.134;17.058;2023-07-16T06:50:44;27.90;1.00
2611;DHT22;5612;51.134;17.058;2023-07-16T06:53:13;28.00;1.00
2611;DHT22;5612;51.134;17.058;2023-07-16T06:55:42;28.00;1.00
2611;DHT22;5612;51.134;17.058;2023-07-16T06:58:13;27.80;1.00
2611;DHT22;5612;51.134;17.058;2023-07-16T07:00:41;27.60;1.00
2611;DHT22;5612;51.134;17.058;2023-07-16T07:03:11;27.50;1.00
2611;DHT22;5612;51.134;17.058;2023-07-16T07:05:42;27.60;1.00
2611;DHT22;5612;51.134;17.058;2023-07-16T07:08:12;27.60;1.00
2611;DHT22;5612;51.134;17.058;2023-07-16T07:10:41;27.60;1.00
2611;DHT22;5612;51.134;17.058;2023-07-16T07:13:10;27.70;1.00
2611;DHT22;5612;51.134;17.058;2023-07-16T07:15:38;27.60;1.00
2611;DHT22;5612;51.134;17.058;2023-07-16T07:18:07;27.60;1.00
2611;DHT22;5612;51.134;17.058;2023-07-16T07:20:36;27.60;1.00
2611;DHT22;5612;51.134;17.058;2023-07-16T07:23:06;27.50;1.00
2611;DHT22;5612;51.134;17.058;2023-07-16T07:25:35;27.60;1.00
2611;DHT22;5612;51.134;17.058;2023-07-16T07:28:04;27.70;1.00
2611;DHT22;5612;51.134;17.058;2023-07-16T07:30:33;27.80;1.00
2611;DHT22;5612;51.134;17.058;2023-07-16T07:33:01;28.10;1.00
2611;DHT22;5612;51.134;17.058;2023-07-16T07:35:30;28.20;1.00
2611;DHT22;5612;51.134;17.058;2023-07-16T07:37:59;28.60;1.00
2611;DHT22;5612;51.134;17.058;2023-07-16T07:40:29;28.80;1.00
2611;DHT22;5612;51.134;17.058;2023-07-16T07:42:58;29.10;1.00
2611;DHT22;5612;51.134;17.058;2023-07-16T07:45:27;29.10;1.00
2611;DHT22;5612;51.134;17.058;2023-07-16T07:47:56;29.00;1.00
2611;DHT22;5612;51.134;17.058;2023-07-16T07:50:24;28.70;1.00
2611;DHT22;5612;51.134;17.058;2023-07-16T07:52:53;28.60;1.00
2611;DHT22;5612;51.134;17.058;2023-07-16T07:55:22;28.50;1.00
2611;DHT22;5612;51.134;17.058;2023-07-16T07:57:52;28.50;1.00
2611;DHT22;5612;51.134;17.058;2023-07-16T08:00:21;28.60;1.00
2611;DHT22;5612;51.134;17.058;2023-07-16T08:02:51;29.20;1.00
2611;DHT22;5612;51.134;17.058;2023-07-16T08:05:20;30.50;1.00
2611;DHT22;5612;51.134;17.058;2023-07-16T08:07:49;32.00;1.00
2611;DHT22;5612;51.134;17.058;2023-07-16T08:10:19;32.60;1.00
2611;DHT22;5612;51.134;17.058;2023-07-16T08:12:48;32.20;1.00
2611;DHT22;5612;51.134;17.058;2023-07-16T08:15:18;31.60;1.00
2611;DHT22;5612;51.134;17.058;2023-07-16T08:17:48;31.50;1.00
2611;DHT22;5612;51.134;17.058;2023-07-16T08:20:16;31.20;1.00
2611;DHT22;5612;51.134;17.058;2023-07-16T08:22:45;31.70;1.00
2611;DHT22;5612;51.134;17.058;2023-07-16T08:25:14;32.10;1.00
2611;DHT22;5612;51.134;17.058;2023-07-16T08:27:43;32.00;1.00
2611;DHT22;5612;51.134;17.058;2023-07-16T08:30:13;31.70;1.00
2611;DHT22;5612;51.134;17.058;2023-07-16T08:32:44;31.60;1.00
2611;DHT22;5612;51.134;17.058;2023-07-16T08:35:15;31.70;1.00
2611;DHT22;5612;51.134;17.058;2023-07-16T08:37:45;31.80;1.00
2611;DHT22;5612;51.134;17.058;2023-07-16T08:40:14;32.70;1.00
2611;DHT22;5612;51.134;17.058;2023-07-16T08:42:45;33.50;1.00
2611;DHT22;5612;51.134;17.058;2023-07-16T08:45:15;33.40;1.00
2611;DHT22;5612;51.134;17.058;2023-07-16T08:47:47;33.10;1.00
2611;DHT22;5612;51.134;17.058;2023-07-16T08:50:17;32.80;1.00
2611;DHT22;5612;51.134;17.058;2023-07-16T08:52:46;32.30;1.00
2611;DHT22;5612;51.134;17.058;2023-07-16T08:55:16;32.30;1.00
2611;DHT22;5612;51.134;17.058;2023-07-16T08:57:46;32.30;1.00
2611;DHT22;5612;51.134;17.058;2023-07-16T09:00:16;32.30;1.00
2611;DHT22;5612;51.134;17.058;2023-07-16T09:02:46;32.30;1.00
2611;DHT22;5612;51.134;17.058;2023-07-16T09:05:19;32.20;1.00
2611;DHT22;5612;51.134;17.058;2023-07-16T09:08:06;32.00;1.00
2611;DHT22;5612;51.134;17.058;2023-07-16T09:10:35;32.00;1.00
2611;DHT22;5612;51.134;17.058;2023-07-16T09:13:04;31.60;1.00
2611;DHT22;5612;51.134;17.058;2023-07-16T09:15:33;31.20;1.00
2611;DHT22;5612;51.134;17.058;2023-07-16T09:18:03;30.80;1.00
2611;DHT22;5612;51.134;17.058;2023-07-16T09:20:32;30.50;1.00
2611;DHT22;5612;51.134;17.058;2023-07-16T09:23:01;30.30;1.00
2611;DHT22;5612;51.134;17.058;2023-07-16T09:25:31;30.20;1.00
2611;DHT22;5612;51.134;17.058;2023-07-16T09:28:03;30.20;1.00
2611;DHT22;5612;51.134;17.058;2023-07-16T09:30:33;30.10;1.00
2611;DHT22;5612;51.134;17.058;2023-07-16T09:33:12;30.20;1.00
2611;DHT22;5612;51.134;17.058;2023-07-16T09:35:41;30.40;1.00
2611;DHT22;5612;51.134;17.058;2023-07-16T09:38:10;30.80;1.00
2611;DHT22;5612;51.134;17.058;2023-07-16T09:40:40;31.00;1.00
2611;DHT22;5612;51.134;17.058;2023-07-16T09:43:10;31.20;1.00
2611;DHT22;5612;51.134;17.058;2023-07-16T09:45:42;31.40;1.00
2611;DHT22;5612;51.134;17.058;2023-07-16T09:48:14;32.10;1.00
2611;DHT22;5612;51.134;17.058;2023-07-16T09:50:52;32.60;1.00
2611;DHT22;5612;51.134;17.058;2023-07-16T09:53:23;32.90;1.00
2611;DHT22;5612;51.134;17.058;2023-07-16T09:55:55;32.90;1.00
2611;DHT22;5612;51.134;17.058;2023-07-16T09:58:25;33.50;1.00
2611;DHT22;5612;51.134;17.058;2023-07-16T10:00:56;34.90;1.00
2611;DHT22;5612;51.134;17.058;2023-07-16T10:03:28;36.00;1.00
2611;DHT22;5612;51.134;17.058;2023-07-16T10:06:06;36.40;1.00
2611;DHT22;5612;51.134;17.058;2023-07-16T10:08:36;36.80;1.00
2611;DHT22;5612;51.134;17.058;2023-07-16T10:11:15;36.50;1.00
2611;DHT22;5612;51.134;17.058;2023-07-16T10:13:49;35.90;1.00
2611;DHT22;5612;51.134;17.058;2023-07-16T10:16:22;35.10;1.00
2611;DHT22;5612;51.134;17.058;2023-07-16T10:18:58;34.30;1.00
2611;DHT22;5612;51.134;17.058;2023-07-16T10:21:28;34.10;1.00
2611;DHT22;5612;51.134;17.058;2023-07-16T10:24:05;33.40;1.00
2611;DHT22;5612;51.134;17.058;2023-07-16T10:26:45;32.80;1.00
2611;DHT22;5612;51.134;17.058;2023-07-16T10:29:14;32.20;1.00
2611;DHT22;5612;51.134;17.058;2023-07-16T10:31:43;31.90;1.00
2611;DHT22;5612;51.134;17.058;2023-07-16T10:34:13;31.80;1.00
2611;DHT22;5612;51.134;17.058;2023-07-16T10:36:42;31.40;1.00
2611;DHT22;5612;51.134;17.058;2023-07-16T10:39:11;31.00;1.00
2611;DHT22;5612;51.134;17.058;2023-07-16T10:41:40;30.60;1.00
2611;DHT22;5612;51.134;17.058;2023-07-16T10:44:09;30.10;1.00
2611;DHT22;5612;51.134;17.058;2023-07-16T10:46:42;29.20;1.00
2611;DHT22;5612;51.134;17.058;2023-07-16T10:49:11;28.80;1.00
2611;DHT22;5612;51.134;17.058;2023-07-16T10:51:41;28.60;1.00
2611;DHT22;5612;51.134;17.058;2023-07-16T10:54:10;28.20;1.00
2611;DHT22;5612;51.134;17.058;2023-07-16T10:56:39;28.20;1.00
2611;DHT22;5612;51.134;17.058;2023-07-16T10:59:10;28.10;1.00
2611;DHT22;5612;51.134;17.058;2023-07-16T11:01:40;27.90;1.00
2611;DHT22;5612;51.134;17.058;2023-07-16T11:04:10;27.80;1.00
2611;DHT22;5612;51.134;17.058;2023-07-16T11:06:40;27.50;1.00
2611;DHT22;5612;51.134;17.058;2023-07-16T11:09:09;27.50;1.00
2611;DHT22;5612;51.134;17.058;2023-07-16T11:11:39;27.50;1.00
2611;DHT22;5612;51.134;17.058;2023-07-16T11:14:08;27.30;1.00
2611;DHT22;5612;51.134;17.058;2023-07-16T11:16:37;27.10;1.00
2611;DHT22;5612;51.134;17.058;2023-07-16T11:19:07;27.20;1.00
2611;DHT22;5612;51.134;17.058;2023-07-16T11:21:36;27.00;1.00
2611;DHT22;5612;51.134;17.058;2023-07-16T11:24:11;26.90;1.00
2611;DHT22;5612;51.134;17.058;2023-07-16T11:26:50;26.80;1.00
2611;DHT22;5612;51.134;17.058;2023-07-16T11:29:19;26.90;1.00
2611;DHT22;5612;51.134;17.058;2023-07-16T11:31:49;26.90;1.00
2611;DHT22;5612;51.134;17.058;2023-07-16T11:34:20;27.00;1.00
2611;DHT22;5612;51.134;17.058;2023-07-16T11:36:50;27.30;1.00
2611;DHT22;5612;51.134;17.058;2023-07-16T11:39:20;27.60;1.00
2611;DHT22;5612;51.134;17.058;2023-07-16T11:41:55;28.20;1.00
2611;DHT22;5612;51.134;17.058;2023-07-16T11:44:26;28.40;1.00
2611;DHT22;5612;51.134;17.058;2023-07-16T11:47:00;28.80;1.00
2611;DHT22;5612;51.134;17.058;2023-07-16T11:49:32;29.00;1.00
2611;DHT22;5612;51.134;17.058;2023-07-16T11:52:01;29.00;1.00
2611;DHT22;5612;51.134;17.058;2023-07-16T11:54:31;28.90;1.00
2611;DHT22;5612;51.134;17.058;2023-07-16T11:57:00;28.70;1.00
2611;DHT22;5612;51.134;17.058;2023-07-16T11:59:29;28.40;1.00
2611;DHT22;5612;51.134;17.058;2023-07-16T12:01:58;28.10;1.00
2611;DHT22;5612;51.134;17.058;2023-07-16T12:04:27;27.80;1.00
2611;DHT22;5612;51.134;17.058;2023-07-16T12:06:56;27.90;1.00
2611;DHT22;5612;51.134;17.058;2023-07-16T12:09:25;28.00;1.00
2611;DHT22;5612;51.134;17.058;2023-07-16T12:11:56;28.00;1.00
2611;DHT22;5612;51.134;17.058;2023-07-16T12:14:25;28.20;1.00
2611;DHT22;5612;51.134;17.058;2023-07-16T12:16:54;28.40;1.00
2611;DHT22;5612;51.134;17.058;2023-07-16T12:19:24;28.50;1.00
2611;DHT22;5612;51.134;17.058;2023-07-16T12:21:53;28.60;1.00
2611;DHT22;5612;51.134;17.058;2023-07-16T12:24:23;28.70;1.00
2611;DHT22;5612;51.134;17.058;2023-07-16T12:26:52;28.80;1.00
2611;DHT22;5612;51.134;17.058;2023-07-16T12:29:22;29.10;1.00
2611;DHT22;5612;51.134;17.058;2023-07-16T12:31:55;28.90;1.00
2611;DHT22;5612;51.134;17.058;2023-07-16T12:34:24;28.80;1.00
2611;DHT22;5612;51.134;17.058;2023-07-16T12:36:52;28.90;1.00
2611;DHT22;5612;51.134;17.058;2023-07-16T12:39:23;29.00;1.00
2611;DHT22;5612;51.134;17.058;2023-07-16T12:41:52;29.20;1.00
2611;DHT22;5612;51.134;17.058;2023-07-16T12:44:22;29.50;1.00
2611;DHT22;5612;51.134;17.058;2023-07-16T12:46:51;29.30;1.00
2611;DHT22;5612;51.134;17.058;2023-07-16T12:49:20;29.10;1.00
2611;DHT22;5612;51.134;17.058;2023-07-16T12:51:48;29.10;1.00
2611;DHT22;5612;51.134;17.058;2023-07-16T12:54:18;29.30;1.00
2611;DHT22;5612;51.134;17.058;2023-07-16T12:56:46;29.70;1.00
2611;DHT22;5612;51.134;17.058;2023-07-16T12:59:15;30.00;1.00
2611;DHT22;5612;51.134;17.058;2023-07-16T13:01:46;30.00;1.00
2611;DHT22;5612;51.134;17.058;2023-07-16T13:04:15;29.90;1.00
2611;DHT22;5612;51.134;17.058;2023-07-16T13:06:44;29.60;1.00
2611;DHT22;5612;51.134;17.058;2023-07-16T13:09:15;29.50;1.00
2611;DHT22;5612;51.134;17.058;2023-07-16T13:11:44;29.30;1.00
2611;DHT22;5612;51.134;17.058;2023-07-16T13:14:14;29.30;1.00
2611;DHT22;5612;51.134;17.058;2023-07-16T13:16:45;29.20;1.00
2611;DHT22;5612;51.134;17.058;2023-07-16T13:19:15;29.10;1.00
2611;DHT22;5612;51.134;17.058;2023-07-16T13:21:44;29.00;1.00
2611;DHT22;5612;51.134;17.058;2023-07-16T13:24:14;28.70;1.00
2611;DHT22;5612;51.134;17.058;2023-07-16T13:26:44;28.70;1.00
2611;DHT22;5612;51.134;17.058;2023-07-16T13:29:15;28.80;1.00
2611;DHT22;5612;51.134;17.058;2023-07-16T13:31:46;28.90;1.00
2611;DHT22;5612;51.134;17.058;2023-07-16T13:34:17;28.90;1.00
2611;DHT22;5612;51.134;17.058;2023-07-16T13:36:46;29.20;1.00
2611;DHT22;5612;51.134;17.058;2023-07-16T13:39:16;29.60;1.00
2611;DHT22;5612;51.134;17.058;2023-07-16T13:41:47;30.00;1.00
2611;DHT22;5612;51.134;17.058;2023-07-16T13:44:16;30.20;1.00
2611;DHT22;5612;51.134;17.058;2023-07-16T13:46:47;30.50;1.00
2611;DHT22;5612;51.134;17.058;2023-07-16T13:49:17;30.90;1.00
2611;DHT22;5612;51.134;17.058;2023-07-16T13:51:46;31.00;1.00
2611;DHT22;5612;51.134;17.058;2023-07-16T13:54:17;30.90;1.00
2611;DHT22;5612;51.134;17.058;2023-07-16T13:56:47;31.10;1.00
2611;DHT22;5612;51.134;17.058;2023-07-16T13:59:17;30.60;1.00
2611;DHT22;5612;51.134;17.058;2023-07-16T14:01:59;30.70;1.00
2611;DHT22;5612;51.134;17.058;2023-07-16T14:04:30;30.30;1.00
2611;DHT22;5612;51.134;17.058;2023-07-16T14:07:00;30.60;1.00
2611;DHT22;5612;51.134;17.058;2023-07-16T14:09:30;30.80;1.00
2611;DHT22;5612;51.134;17.058;2023-07-16T14:12:00;30.70;1.00
2611;DHT22;5612;51.134;17.058;2023-07-16T14:14:29;30.70;1.00
2611;DHT22;5612;51.134;17.058;2023-07-16T14:17:01;30.50;1.00
2611;DHT22;5612;51.134;17.058;2023-07-16T14:19:31;30.30;1.00
2611;DHT22;5612;51.134;17.058;2023-07-16T14:22:02;30.00;1.00
2611;DHT22;5612;51.134;17.058;2023-07-16T14:24:32;29.60;1.00
2611;DHT22;5612;51.134;17.058;2023-07-16T14:27:01;29.40;1.00
2611;DHT22;5612;51.134;17.058;2023-07-16T14:29:30;29.20;1.00
2611;DHT22;5612;51.134;17.058;2023-07-16T14:32:03;29.00;1.00
2611;DHT22;5612;51.134;17.058;2023-07-16T14:34:34;29.10;1.00
2611;DHT22;5612;51.134;17.058;2023-07-16T14:37:04;29.10;1.00
2611;DHT22;5612;51.134;17.058;2023-07-16T14:39:34;29.10;1.00
2611;DHT22;5612;51.134;17.058;2023-07-16T14:42:04;29.00;1.00
2611;DHT22;5612;51.134;17.058;2023-07-16T14:44:35;28.80;1.00
2611;DHT22;5612;51.134;17.058;2023-07-16T14:47:09;28.70;1.00
2611;DHT22;5612;51.134;17.058;2023-07-16T14:49:38;28.60;1.00
2611;DHT22;5612;51.134;17.058;2023-07-16T14:52:08;28.80;1.00
2611;DHT22;5612;51.134;17.058;2023-07-16T14:54:38;28.80;1.00
2611;DHT22;5612;51.134;17.058;2023-07-16T14:57:09;28.80;1.00
2611;DHT22;5612;51.134;17.058;2023-07-16T14:59:39;28.70;1.00
2611;DHT22;5612;51.134;17.058;2023-07-16T15:02:11;28.70;1.00
2611;DHT22;5612;51.134;17.058;2023-07-16T15:04:41;28.50;1.00
2611;DHT22;5612;51.134;17.058;2023-07-16T15:07:11;28.70;1.00
2611;DHT22;5612;51.134;17.058;2023-07-16T15:09:41;28.60;1.00
2611;DHT22;5612;51.134;17.058;2023-07-16T15:12:10;28.50;1.00
2611;DHT22;5612;51.134;17.058;2023-07-16T15:14:40;28.40;1.00
2611;DHT22;5612;51.134;17.058;2023-07-16T15:17:12;28.40;1.00
2611;DHT22;5612;51.134;17.058;2023-07-16T15:19:41;28.30;1.00
2611;DHT22;5612;51.134;17.058;2023-07-16T15:22:11;28.40;1.00
2611;DHT22;5612;51.134;17.058;2023-07-16T15:24:44;28.20;1.00
2611;DHT22;5612;51.134;17.058;2023-07-16T15:27:15;28.10;1.00
2611;DHT22;5612;51.134;17.058;2023-07-16T15:29:46;28.30;1.00
2611;DHT22;5612;51.134;17.058;2023-07-16T15:32:16;28.30;1.00
2611;DHT22;5612;51.134;17.058;2023-07-16T15:34:47;28.30;1.00
2611;DHT22;5612;51.134;17.058;2023-07-16T15:37:18;28.40;1.00
2611;DHT22;5612;51.134;17.058;2023-07-16T15:39:47;28.60;1.00
2611;DHT22;5612;51.134;17.058;2023-07-16T15:42:17;28.80;1.00
2611;DHT22;5612;51.134;17.058;2023-07-16T15:44:47;28.70;1.00
2611;DHT22;5612;51.134;17.058;2023-07-16T15:47:19;28.70;1.00
2611;DHT22;5612;51.134;17.058;2023-07-16T15:49:49;28.80;1.00
2611;DHT22;5612;51.134;17.058;2023-07-16T15:52:20;28.90;1.00
2611;DHT22;5612;51.134;17.058;2023-07-16T15:54:54;29.20;1.00
2611;DHT22;5612;51.134;17.058;2023-07-16T15:57:23;29.60;1.00
2611;DHT22;5612;51.134;17.058;2023-07-16T15:59:54;29.70;1.00
2611;DHT22;5612;51.134;17.058;2023-07-16T16:02:25;29.80;1.00
2611;DHT22;5612;51.134;17.058;2023-07-16T16:04:55;30.10;1.00
2611;DHT22;5612;51.134;17.058;2023-07-16T16:07:26;30.10;1.00
2611;DHT22;5612;51.134;17.058;2023-07-16T16:09:56;30.30;1.00
2611;DHT22;5612;51.134;17.058;2023-07-16T16:12:26;30.10;1.00
2611;DHT22;5612;51.134;17.058;2023-07-16T16:14:56;30.10;1.00